createdAt,value
2016-11-19T00:00:08.948Z,5.85
2016-11-19T00:01:09.003Z,5.87
2016-11-19T00:02:09.043Z,5.88
2016-11-19T00:03:09.045Z,5.88
2016-11-19T00:04:08.999Z,5.88
2016-11-19T00:05:08.880Z,5.77
2016-11-19T00:06:08.877Z,5.96
2016-11-19T00:07:08.907Z,5.85
2016-11-19T00:08:08.956Z,5.92
2016-11-19T00:09:08.885Z,5.95
2016-11-19T00:10:08.960Z,5.89
2016-11-19T00:11:08.931Z,5.96
2016-11-19T00:12:08.959Z,6.02
2016-11-19T00:13:08.883Z,5.8
2016-11-19T00:14:08.981Z,5.92
2016-11-19T00:15:09.061Z,5.99
2016-11-19T00:16:08.963Z,5.95
2016-11-19T00:17:09.060Z,5.91
2016-11-19T00:18:08.915Z,6.02
2016-11-19T00:19:08.963Z,5.98
2016-11-19T00:20:08.997Z,6
2016-11-19T00:21:08.993Z,5.91
2016-11-19T00:22:09.026Z,5.98
2016-11-19T00:23:09.027Z,6.14
2016-11-19T00:24:09.080Z,6.09
2016-11-19T00:25:08.926Z,6.07
2016-11-19T00:26:08.918Z,6
2016-11-19T00:27:09.013Z,6.03
2016-11-19T00:28:09.023Z,6
2016-11-19T00:30:08.943Z,6.02
2016-11-19T00:31:08.940Z,5.91
2016-11-19T00:32:08.938Z,5.95
2016-11-19T00:33:08.945Z,5.91
2016-11-19T00:34:08.988Z,5.84
2016-11-19T00:35:08.952Z,5.88
2016-11-19T00:36:08.955Z,5.87
2016-11-19T00:37:08.986Z,5.81
2016-11-19T00:38:08.956Z,5.78
2016-11-19T00:39:08.982Z,5.82
2016-11-19T00:40:08.952Z,5.77
2016-11-19T00:41:08.968Z,5.75
2016-11-19T00:42:08.966Z,5.78
2016-11-19T00:43:08.974Z,5.8
2016-11-19T00:44:08.977Z,5.7
2016-11-19T00:45:08.979Z,5.7
2016-11-19T00:46:08.978Z,5.66
2016-11-19T00:47:08.968Z,5.67
2016-11-19T00:48:09.012Z,5.6
2016-11-19T00:49:08.988Z,5.57
2016-11-19T00:50:09.007Z,5.49
2016-11-19T00:51:09.092Z,5.54
2016-11-19T00:52:09.167Z,5.51
2016-11-19T00:53:09.071Z,5.52
2016-11-19T00:54:09.011Z,5.42
2016-11-19T00:55:09.109Z,5.44
2016-11-19T00:56:09.092Z,5.51
2016-11-19T00:57:09.111Z,5.44
2016-11-19T00:58:09.175Z,5.41
2016-11-19T00:59:09.477Z,5.44
2016-11-19T01:00:09.179Z,5.48
2016-11-19T01:01:09.176Z,5.41
2016-11-19T01:02:09.003Z,5.42
2016-11-19T01:03:09.129Z,5.41
2016-11-19T01:04:09.109Z,5.46
2016-11-19T01:05:09.024Z,5.41
2016-11-19T01:06:09.151Z,5.46
2016-11-19T01:07:09.183Z,5.49
2016-11-19T01:08:09.118Z,5.36
2016-11-19T01:09:09.044Z,5.36
2016-11-19T01:10:09.119Z,5.39
2016-11-19T01:11:09.143Z,5.3
2016-11-19T01:12:09.206Z,5.27
2016-11-19T01:13:09.047Z,5.33
2016-11-19T01:14:09.208Z,5.31
2016-11-19T01:15:09.054Z,5.44
2016-11-19T01:16:09.071Z,5.33
2016-11-19T01:17:09.253Z,5.27
2016-11-19T01:18:09.229Z,5.24
2016-11-19T01:19:09.144Z,5.31
2016-11-19T01:20:09.149Z,5.28
2016-11-19T01:21:09.156Z,5.36
2016-11-19T01:22:09.205Z,5.26
2016-11-19T01:23:09.084Z,5.3
2016-11-19T01:24:09.091Z,5.36
2016-11-19T01:25:09.152Z,5.18
2016-11-19T01:26:09.171Z,5.28
2016-11-19T01:27:09.228Z,5.23
2016-11-19T01:28:09.247Z,5.18
2016-11-19T01:29:09.243Z,5.18
2016-11-19T01:30:09.158Z,5.3
2016-11-19T01:31:09.184Z,5.28
2016-11-19T01:32:09.181Z,5.16
2016-11-19T01:33:09.096Z,5.15
2016-11-19T01:34:09.193Z,5.15
2016-11-19T01:35:09.203Z,5.13
2016-11-19T01:36:09.454Z,5.16
2016-11-19T01:37:09.274Z,5.09
2016-11-19T01:38:09.274Z,5.18
2016-11-19T01:39:09.285Z,5.12
2016-11-19T01:40:09.211Z,5.1
2016-11-19T01:41:09.229Z,5.1
2016-11-19T01:42:09.732Z,5.13
2016-11-19T01:43:09.306Z,5.09
2016-11-19T01:44:09.208Z,5.13
2016-11-19T01:45:09.229Z,5.15
2016-11-19T01:46:09.223Z,5.15
2016-11-19T01:47:09.215Z,5.16
2016-11-19T01:48:09.219Z,5.13
2016-11-19T01:49:09.305Z,5.12
2016-11-19T01:50:09.239Z,5.24
2016-11-19T01:51:09.167Z,5.12
2016-11-19T01:52:09.310Z,5.09
2016-11-19T01:53:09.156Z,5.02
2016-11-19T01:54:09.215Z,5.05
2016-11-19T01:55:09.330Z,5.03
2016-11-19T01:56:09.173Z,5.08
2016-11-19T01:57:09.336Z,5.06
2016-11-19T01:58:09.181Z,5.06
2016-11-19T01:59:09.292Z,5.1
2016-11-19T02:00:09.247Z,5.1
2016-11-19T02:01:09.266Z,5.06
2016-11-19T02:02:09.182Z,5.16
2016-11-19T02:03:09.199Z,5.16
2016-11-19T02:04:09.190Z,5.13
2016-11-19T02:05:09.198Z,5.15
2016-11-19T02:06:09.270Z,5.16
2016-11-19T02:07:09.340Z,5.27
2016-11-19T02:08:09.280Z,5.3
2016-11-19T02:09:09.295Z,5.27
2016-11-19T02:10:09.253Z,5.31
2016-11-19T02:11:09.359Z,5.37
2016-11-19T02:12:09.289Z,5.37
2016-11-19T02:13:09.286Z,5.46
2016-11-19T02:14:09.389Z,5.41
2016-11-19T02:15:09.392Z,5.46
2016-11-19T02:16:09.296Z,5.57
2016-11-19T02:17:09.320Z,5.48
2016-11-19T02:18:09.307Z,5.49
2016-11-19T02:19:09.312Z,5.51
2016-11-19T02:20:09.268Z,5.57
2016-11-19T02:21:09.318Z,5.64
2016-11-19T02:22:09.260Z,5.59
2016-11-19T02:23:09.427Z,5.69
2016-11-19T02:24:09.332Z,5.72
2016-11-19T02:25:09.337Z,5.78
2016-11-19T02:26:09.456Z,5.8
2016-11-19T02:27:09.268Z,5.82
2016-11-19T02:28:09.350Z,5.85
2016-11-19T02:29:09.273Z,5.72
2016-11-19T02:30:09.373Z,5.8
2016-11-19T02:31:09.294Z,5.89
2016-11-19T02:32:09.274Z,5.87
2016-11-19T02:33:09.352Z,5.85
2016-11-19T02:34:09.369Z,5.91
2016-11-19T02:35:09.376Z,5.88
2016-11-19T02:36:09.308Z,5.81
2016-11-19T02:37:09.276Z,5.87
2016-11-19T02:38:09.391Z,5.8
2016-11-19T02:39:09.434Z,5.7
2016-11-19T02:40:09.439Z,5.7
2016-11-19T02:41:09.375Z,5.67
2016-11-19T02:42:09.363Z,5.77
2016-11-19T02:43:09.456Z,5.78
2016-11-19T02:44:09.378Z,5.73
2016-11-19T02:45:09.386Z,5.75
2016-11-19T02:46:09.394Z,5.69
2016-11-19T02:47:09.402Z,5.63
2016-11-19T02:48:09.473Z,5.75
2016-11-19T02:49:09.463Z,5.73
2016-11-19T02:50:09.400Z,5.72
2016-11-19T02:51:09.406Z,5.73
2016-11-19T02:52:09.504Z,5.69
2016-11-19T02:53:09.414Z,5.69
2016-11-19T02:54:09.498Z,5.63
2016-11-19T02:55:09.423Z,5.69
2016-11-19T02:56:09.416Z,5.69
2016-11-19T02:57:09.340Z,5.72
2016-11-19T02:58:09.529Z,5.7
2016-11-19T02:59:09.511Z,5.69
2016-11-19T03:00:09.357Z,5.75
2016-11-19T03:01:09.348Z,5.64
2016-11-19T03:02:09.520Z,5.54
2016-11-19T03:03:09.454Z,5.73
2016-11-19T03:04:09.429Z,5.66
2016-11-19T03:05:09.446Z,5.7
2016-11-19T03:06:09.528Z,5.75
2016-11-19T03:07:09.376Z,5.66
2016-11-19T03:08:09.448Z,5.7
2016-11-19T03:09:09.525Z,5.72
2016-11-19T03:10:09.469Z,5.72
2016-11-19T03:11:09.465Z,5.66
2016-11-19T03:12:09.580Z,5.85
2016-11-19T03:13:09.454Z,5.69
2016-11-19T03:14:09.517Z,5.73
2016-11-19T03:15:09.397Z,5.64
2016-11-19T03:16:09.396Z,5.81
2016-11-19T03:17:09.483Z,5.82
2016-11-19T03:18:09.399Z,5.85
2016-11-19T03:19:09.526Z,5.92
2016-11-19T03:20:09.486Z,5.78
2016-11-19T03:21:09.483Z,5.81
2016-11-19T03:22:09.493Z,5.87
2016-11-19T03:23:09.507Z,5.81
2016-11-19T03:24:09.480Z,5.73
2016-11-19T03:25:09.577Z,5.82
2016-11-19T03:26:09.418Z,5.78
2016-11-19T03:27:09.510Z,5.8
2016-11-19T03:28:09.498Z,5.8
2016-11-19T03:29:09.429Z,5.75
2016-11-19T03:30:09.476Z,5.77
2016-11-19T03:31:09.597Z,5.75
2016-11-19T03:32:09.520Z,5.91
2016-11-19T03:33:09.510Z,5.73
2016-11-19T03:34:09.521Z,5.8
2016-11-19T03:35:09.528Z,5.81
2016-11-19T03:36:09.626Z,5.78
2016-11-19T03:37:09.473Z,5.8
2016-11-19T03:38:09.565Z,5.8
2016-11-19T03:39:09.523Z,5.81
2016-11-19T03:40:09.467Z,5.82
2016-11-19T03:41:09.563Z,5.85
2016-11-19T03:42:09.460Z,5.89
2016-11-19T03:43:09.469Z,5.81
2016-11-19T03:44:09.562Z,5.82
2016-11-19T03:45:09.635Z,5.96
2016-11-19T03:46:09.611Z,5.85
2016-11-19T03:47:09.563Z,5.78
2016-11-19T03:48:09.642Z,5.87
2016-11-19T03:49:09.494Z,5.87
2016-11-19T03:50:09.481Z,5.89
2016-11-19T03:51:09.574Z,5.81
2016-11-19T03:52:09.511Z,5.81
2016-11-19T03:53:09.577Z,5.78
2016-11-19T03:54:09.634Z,5.82
2016-11-19T03:55:09.590Z,5.84
2016-11-19T03:56:09.573Z,5.78
2016-11-19T03:57:09.591Z,5.89
2016-11-19T03:58:09.657Z,5.8
2016-11-19T03:59:09.634Z,5.81
2016-11-19T04:00:09.675Z,5.85
2016-11-19T04:01:09.512Z,5.89
2016-11-19T04:02:10.445Z,5.78
2016-11-19T04:03:09.680Z,5.89
2016-11-19T04:04:09.669Z,5.91
2016-11-19T04:05:09.597Z,5.81
2016-11-19T04:06:09.707Z,5.82
2016-11-19T04:07:09.637Z,5.82
2016-11-19T04:08:09.613Z,5.72
2016-11-19T04:09:09.611Z,5.81
2016-11-19T04:10:09.551Z,5.81
2016-11-19T04:11:09.635Z,5.92
2016-11-19T04:12:09.702Z,5.89
2016-11-19T04:13:09.552Z,5.82
2016-11-19T04:14:09.558Z,5.96
2016-11-19T04:15:09.621Z,5.98
2016-11-19T04:16:09.640Z,5.85
2016-11-19T04:17:09.650Z,5.78
2016-11-19T04:18:09.616Z,5.85
2016-11-19T04:19:09.563Z,5.85
2016-11-19T04:20:10.006Z,5.81
2016-11-19T04:21:09.718Z,5.96
2016-11-19T04:22:09.582Z,5.88
2016-11-19T04:23:09.747Z,5.91
2016-11-19T04:24:09.730Z,5.84
2016-11-19T04:25:09.669Z,5.98
2016-11-19T04:26:09.665Z,5.8
2016-11-19T04:27:09.657Z,5.87
2016-11-19T04:28:09.674Z,5.85
2016-11-19T04:29:09.600Z,5.95
2016-11-19T04:30:09.672Z,5.87
2016-11-19T04:31:09.688Z,5.85
2016-11-19T04:32:09.757Z,5.99
2016-11-19T04:33:09.707Z,5.89
2016-11-19T04:34:09.894Z,5.91
2016-11-19T04:35:09.679Z,5.85
2016-11-19T04:36:09.688Z,5.84
2016-11-19T04:37:09.626Z,5.84
2016-11-19T04:38:09.686Z,5.85
2016-11-19T04:39:09.713Z,5.84
2016-11-19T04:40:09.616Z,5.82
2016-11-19T04:41:09.716Z,5.73
2016-11-19T04:42:09.710Z,5.8
2016-11-19T04:43:09.796Z,5.73
2016-11-19T04:44:09.625Z,5.8
2016-11-19T04:45:09.629Z,5.8
2016-11-19T04:46:09.648Z,5.8
2016-11-19T04:47:09.734Z,5.8
2016-11-19T04:48:09.737Z,5.72
2016-11-19T04:49:09.647Z,5.77
2016-11-19T04:50:09.828Z,5.67
2016-11-19T04:51:09.734Z,5.7
2016-11-19T04:52:09.662Z,5.78
2016-11-19T04:53:09.824Z,5.72
2016-11-19T04:54:09.656Z,5.69
2016-11-19T04:55:09.861Z,5.72
2016-11-19T04:56:09.823Z,5.8
2016-11-19T04:57:09.742Z,5.66
2016-11-19T04:58:09.760Z,5.81
2016-11-19T04:59:09.813Z,5.81
2016-11-19T05:00:09.832Z,5.67
2016-11-19T05:01:09.775Z,5.81
2016-11-19T05:02:09.754Z,5.82
2016-11-19T05:03:09.754Z,5.73
2016-11-19T05:04:09.845Z,5.78
2016-11-19T05:05:09.763Z,5.8
2016-11-19T05:06:10.135Z,5.81
2016-11-19T05:07:09.772Z,5.81
2016-11-19T05:08:09.705Z,5.8
2016-11-19T05:09:09.774Z,5.81
2016-11-19T05:10:09.778Z,5.77
2016-11-19T05:11:09.797Z,5.69
2016-11-19T05:12:09.703Z,5.63
2016-11-19T05:13:09.800Z,5.77
2016-11-19T05:14:09.868Z,5.69
2016-11-19T05:15:09.789Z,5.75
2016-11-19T05:16:09.806Z,5.72
2016-11-19T05:17:09.803Z,5.72
2016-11-19T05:18:09.802Z,5.67
2016-11-19T05:19:09.862Z,5.78
2016-11-19T05:20:09.873Z,5.72
2016-11-19T05:21:09.804Z,5.72
2016-11-19T05:22:09.831Z,5.69
2016-11-19T05:23:09.759Z,5.73
2016-11-19T05:24:09.904Z,5.7
2016-11-19T05:25:09.923Z,5.75
2016-11-19T05:26:09.906Z,5.75
2016-11-19T05:27:09.929Z,5.67
2016-11-19T05:28:09.831Z,5.8
2016-11-19T05:29:09.854Z,5.72
2016-11-19T05:30:09.832Z,5.85
2016-11-19T05:31:09.778Z,5.8
2016-11-19T05:32:09.927Z,5.73
2016-11-19T05:33:09.779Z,5.91
2016-11-19T05:34:09.921Z,5.81
2016-11-19T05:35:09.778Z,5.87
2016-11-19T05:36:09.959Z,5.89
2016-11-19T05:37:09.791Z,5.96
2016-11-19T05:38:09.906Z,5.85
2016-11-19T05:39:09.927Z,5.82
2016-11-19T05:40:09.877Z,5.81
2016-11-19T05:41:09.792Z,5.85
2016-11-19T05:42:09.796Z,5.82
2016-11-19T05:43:09.986Z,5.84
2016-11-19T05:44:09.809Z,5.96
2016-11-19T05:45:09.880Z,5.88
2016-11-19T05:46:09.823Z,5.81
2016-11-19T05:47:09.977Z,5.85
2016-11-19T05:48:09.813Z,5.96
2016-11-19T05:49:09.897Z,5.87
2016-11-19T05:50:10.019Z,5.87
2016-11-19T05:51:09.918Z,5.82
2016-11-19T05:52:09.823Z,5.87
2016-11-19T05:53:09.987Z,5.84
2016-11-19T05:54:10.015Z,5.87
2016-11-19T05:55:09.987Z,5.87
2016-11-19T05:56:09.838Z,5.81
2016-11-19T05:57:09.844Z,5.87
2016-11-19T05:58:09.830Z,5.84
2016-11-19T05:59:09.858Z,5.95
2016-11-19T06:00:09.856Z,5.87
2016-11-19T06:01:09.929Z,5.91
2016-11-19T06:02:09.931Z,5.89
2016-11-19T06:03:10.013Z,5.92
2016-11-19T06:04:09.999Z,5.85
2016-11-19T06:05:09.860Z,5.85
2016-11-19T06:06:09.877Z,5.87
2016-11-19T06:07:09.951Z,5.88
2016-11-19T06:08:09.871Z,5.81
2016-11-19T06:09:10.016Z,5.88
2016-11-19T06:10:09.922Z,5.82
2016-11-19T06:11:10.080Z,5.96
2016-11-19T06:12:09.969Z,5.87
2016-11-19T06:13:09.972Z,5.95
2016-11-19T06:14:09.878Z,5.92
2016-11-19T06:15:09.928Z,5.92
2016-11-19T06:16:09.886Z,5.98
2016-11-19T06:17:09.969Z,6.02
2016-11-19T06:18:10.007Z,6.07
2016-11-19T06:19:09.993Z,6.02
2016-11-19T06:20:10.044Z,5.96
2016-11-19T06:21:09.967Z,5.95
2016-11-19T06:22:10.057Z,5.95
2016-11-19T06:23:10.095Z,6
2016-11-19T06:24:09.994Z,6.14
2016-11-19T06:25:10.004Z,5.99
2016-11-19T06:26:10.050Z,6.13
2016-11-19T06:27:09.924Z,6.21
2016-11-19T06:28:10.013Z,6.14
2016-11-19T06:29:10.013Z,6.13
2016-11-19T06:30:10.015Z,6.17
2016-11-19T06:31:09.963Z,6.2
2016-11-19T06:32:10.130Z,6.18
2016-11-19T06:33:10.083Z,6.28
2016-11-19T06:34:10.094Z,6.33
2016-11-19T06:35:09.945Z,6.36
2016-11-19T06:36:10.022Z,6.42
2016-11-19T06:37:10.015Z,6.44
2016-11-19T06:38:10.014Z,6.42
2016-11-19T06:39:09.977Z,6.33
2016-11-19T06:40:10.021Z,6.42
2016-11-19T06:41:10.042Z,6.46
2016-11-19T06:42:11.474Z,6.43
2016-11-19T06:43:10.137Z,6.44
2016-11-19T06:44:09.987Z,6.49
2016-11-19T06:45:10.055Z,6.43
2016-11-19T06:46:09.979Z,6.52
2016-11-19T06:47:10.014Z,6.57
2016-11-19T06:48:09.985Z,6.46
2016-11-19T06:49:09.982Z,6.57
2016-11-19T06:50:10.160Z,6.47
2016-11-19T06:51:10.146Z,6.49
2016-11-19T06:52:10.084Z,6.54
2016-11-19T06:53:10.142Z,6.54
2016-11-19T06:54:10.010Z,6.52
2016-11-19T06:55:10.089Z,6.64
2016-11-19T06:56:10.141Z,6.51
2016-11-19T06:57:10.015Z,6.68
2016-11-19T06:58:10.047Z,6.62
2016-11-19T06:59:10.072Z,6.62
2016-11-19T07:00:10.155Z,6.6
2016-11-19T07:01:10.175Z,6.58
2016-11-19T07:02:10.021Z,6.57
2016-11-19T07:03:10.129Z,6.55
2016-11-19T07:04:10.097Z,6.64
2016-11-19T07:05:10.163Z,6.61
2016-11-19T07:06:10.038Z,6.75
2016-11-19T07:07:10.056Z,6.75
2016-11-19T07:08:10.658Z,6.76
2016-11-19T07:09:10.100Z,6.78
2016-11-19T07:10:10.099Z,6.75
2016-11-19T07:11:10.115Z,6.72
2016-11-19T07:12:10.119Z,6.72
2016-11-19T07:13:10.145Z,6.73
2016-11-19T07:14:10.126Z,6.73
2016-11-19T07:15:10.234Z,6.73
2016-11-19T07:16:10.143Z,6.78
2016-11-19T07:17:10.170Z,6.75
2016-11-19T07:18:10.206Z,6.68
2016-11-19T07:19:10.147Z,6.73
2016-11-19T07:20:10.151Z,6.73
2016-11-19T07:21:10.461Z,6.72
2016-11-19T07:22:10.212Z,6.72
2016-11-19T07:23:10.283Z,6.8
2016-11-19T07:24:10.074Z,6.8
2016-11-19T07:25:10.101Z,6.83
2016-11-19T07:26:10.227Z,6.79
2016-11-19T07:27:10.249Z,6.82
2016-11-19T07:28:10.165Z,6.83
2016-11-19T07:29:10.169Z,6.79
2016-11-19T07:30:10.279Z,6.82
2016-11-19T07:31:10.170Z,6.86
2016-11-19T07:32:10.187Z,6.9
2016-11-19T07:33:10.286Z,6.85
2016-11-19T07:34:10.106Z,6.93
2016-11-19T07:35:10.225Z,6.98
2016-11-19T07:36:10.194Z,6.95
2016-11-19T07:37:10.272Z,6.93
2016-11-19T07:38:10.267Z,6.91
2016-11-19T07:39:10.119Z,6.86
2016-11-19T07:40:10.195Z,7.01
2016-11-19T07:41:10.431Z,6.91
2016-11-19T07:42:10.206Z,6.9
2016-11-19T07:43:10.148Z,7.01
2016-11-19T07:44:10.321Z,7.01
2016-11-19T07:45:10.899Z,6.98
2016-11-19T07:46:10.177Z,6.97
2016-11-19T07:47:10.162Z,6.91
2016-11-19T07:48:10.232Z,7.01
2016-11-19T07:49:10.344Z,6.93
2016-11-19T07:50:10.214Z,6.95
2016-11-19T07:51:10.243Z,7
2016-11-19T07:52:10.313Z,7.03
2016-11-19T07:53:10.229Z,7.03
2016-11-19T07:54:10.228Z,7.08
2016-11-19T07:55:10.434Z,7.16
2016-11-19T07:56:10.231Z,7.11
2016-11-19T07:57:10.177Z,7.04
2016-11-19T07:58:10.174Z,7.13
2016-11-19T07:59:10.330Z,7.09
2016-11-19T08:00:10.183Z,7.21
2016-11-19T08:01:11.359Z,7.11
2016-11-19T08:02:10.247Z,7.12
2016-11-19T08:03:10.225Z,7.16
2016-11-19T08:04:10.341Z,7.16
2016-11-19T08:05:10.260Z,7.29
2016-11-19T08:06:10.193Z,7.23
2016-11-19T08:07:10.240Z,7.22
2016-11-19T08:08:10.307Z,7.27
2016-11-19T08:09:10.198Z,7.33
2016-11-19T08:10:10.290Z,7.27
2016-11-19T08:11:10.285Z,7.23
2016-11-19T08:12:10.392Z,7.19
2016-11-19T08:13:10.287Z,7.26
2016-11-19T08:14:10.437Z,7.27
2016-11-19T08:15:10.214Z,7.33
2016-11-19T08:16:10.400Z,7.4
2016-11-19T08:17:10.381Z,7.22
2016-11-19T08:18:10.325Z,7.29
2016-11-19T08:19:10.337Z,7.23
2016-11-19T08:20:10.585Z,7.33
2016-11-19T08:21:10.339Z,7.34
2016-11-19T08:22:11.041Z,7.4
2016-11-19T08:23:10.418Z,7.26
2016-11-19T08:24:10.244Z,7.23
2016-11-19T08:25:10.322Z,7.39
2016-11-19T08:26:10.405Z,7.39
2016-11-19T08:27:10.366Z,7.41
2016-11-19T08:28:10.411Z,7.41
2016-11-19T08:29:10.325Z,7.33
2016-11-19T08:30:10.474Z,7.4
2016-11-19T08:31:10.412Z,7.4
2016-11-19T08:32:10.396Z,7.4
2016-11-19T08:33:10.410Z,7.34
2016-11-19T08:34:10.331Z,7.44
2016-11-19T08:35:10.352Z,7.37
2016-11-19T08:36:10.434Z,7.37
2016-11-19T08:37:10.279Z,7.44
2016-11-19T08:38:10.383Z,7.37
2016-11-19T08:39:10.393Z,7.47
2016-11-19T08:40:10.383Z,7.51
2016-11-19T08:41:10.423Z,7.47
2016-11-19T08:42:10.466Z,7.39
2016-11-19T08:43:10.439Z,7.34
2016-11-19T08:44:10.386Z,7.4
2016-11-19T08:45:10.403Z,7.41
2016-11-19T08:46:10.447Z,7.4
2016-11-19T08:47:10.334Z,7.39
2016-11-19T08:48:10.308Z,7.47
2016-11-19T08:49:10.391Z,7.45
2016-11-19T08:50:10.477Z,7.39
2016-11-19T08:51:10.515Z,7.48
2016-11-19T08:52:10.512Z,7.37
2016-11-19T08:53:10.412Z,7.37
2016-11-19T08:54:10.428Z,7.39
2016-11-19T08:55:10.446Z,7.37
2016-11-19T08:56:10.487Z,7.41
2016-11-19T08:57:10.415Z,7.4
2016-11-19T08:58:10.492Z,7.54
2016-11-19T08:59:10.510Z,7.37
2016-11-19T09:00:10.555Z,7.48
2016-11-19T09:01:10.544Z,7.37
2016-11-19T09:02:10.507Z,7.48
2016-11-19T09:03:10.371Z,7.47
2016-11-19T09:04:10.446Z,7.47
2016-11-19T09:05:10.570Z,7.37
2016-11-19T09:06:10.371Z,7.39
2016-11-19T09:07:10.433Z,7.47
2016-11-19T09:08:10.448Z,7.45
2016-11-19T09:09:10.383Z,7.34
2016-11-19T09:10:10.552Z,7.44
2016-11-19T09:11:10.407Z,7.39
2016-11-19T09:12:10.495Z,7.4
2016-11-19T09:13:10.563Z,7.54
2016-11-19T09:14:10.521Z,7.45
2016-11-19T09:15:10.569Z,7.51
2016-11-19T09:16:10.621Z,7.51
2016-11-19T09:17:10.514Z,7.4
2016-11-19T09:18:10.583Z,7.47
2016-11-19T09:19:10.478Z,7.49
2016-11-19T09:20:10.451Z,7.56
2016-11-19T09:21:11.564Z,7.41
2016-11-19T09:22:10.498Z,7.55
2016-11-19T09:23:10.632Z,7.44
2016-11-19T09:24:10.567Z,7.52
2016-11-19T09:25:10.490Z,7.44
2016-11-19T09:26:10.424Z,7.48
2016-11-19T09:27:10.617Z,7.58
2016-11-19T09:28:10.584Z,7.49
2016-11-19T09:29:10.418Z,7.49
2016-11-19T09:30:10.558Z,7.52
2016-11-19T09:31:10.627Z,7.54
2016-11-19T09:32:10.537Z,7.44
2016-11-19T09:33:10.512Z,7.52
2016-11-19T09:34:10.482Z,7.58
2016-11-19T09:35:10.519Z,7.47
2016-11-19T09:36:10.449Z,7.56
2016-11-19T09:37:10.509Z,7.48
2016-11-19T09:38:10.597Z,7.55
2016-11-19T09:39:10.641Z,7.54
2016-11-19T09:40:10.447Z,7.56
2016-11-19T09:41:10.587Z,7.52
2016-11-19T09:42:10.558Z,7.56
2016-11-19T09:43:10.585Z,7.67
2016-11-19T09:44:10.547Z,7.54
2016-11-19T09:45:10.622Z,7.67
2016-11-19T09:46:10.607Z,7.59
2016-11-19T09:47:10.546Z,7.63
2016-11-19T09:48:10.565Z,7.64
2016-11-19T09:49:10.576Z,7.67
2016-11-19T09:50:10.557Z,7.59
2016-11-19T09:51:10.503Z,7.64
2016-11-19T09:52:10.483Z,7.61
2016-11-19T09:53:10.490Z,7.58
2016-11-19T09:54:10.578Z,7.63
2016-11-19T09:55:10.534Z,7.64
2016-11-19T09:56:10.496Z,7.64
2016-11-19T09:57:10.488Z,7.59
2016-11-19T09:58:10.555Z,7.64
2016-11-19T09:59:10.694Z,7.74
2016-11-19T10:00:10.610Z,7.64
2016-11-19T10:01:10.628Z,7.64
2016-11-19T10:02:10.650Z,7.63
2016-11-19T10:03:10.669Z,7.7
2016-11-19T10:04:10.628Z,7.68
2016-11-19T10:05:10.520Z,7.7
2016-11-19T10:06:10.627Z,7.75
2016-11-19T10:07:10.541Z,7.63
2016-11-19T10:08:10.661Z,7.64
2016-11-19T10:09:10.559Z,7.68
2016-11-19T10:10:10.683Z,7.8
2016-11-19T10:11:10.681Z,7.75
2016-11-19T10:12:10.730Z,7.68
2016-11-19T10:13:10.735Z,7.71
2016-11-19T10:14:10.572Z,7.74
2016-11-19T10:15:10.728Z,7.74
2016-11-19T10:16:10.632Z,7.63
2016-11-19T10:17:10.717Z,7.61
2016-11-19T10:18:10.656Z,7.63
2016-11-19T10:19:10.634Z,7.55
2016-11-19T10:20:10.714Z,7.54
2016-11-19T10:21:11.363Z,7.49
2016-11-19T10:22:10.649Z,7.52
2016-11-19T10:23:10.720Z,7.47
2016-11-19T10:24:10.660Z,7.49
2016-11-19T10:25:10.767Z,7.4
2016-11-19T10:26:10.680Z,7.48
2016-11-19T10:27:10.600Z,7.34
2016-11-19T10:28:10.771Z,7.44
2016-11-19T10:29:10.658Z,7.29
2016-11-19T10:30:10.602Z,7.33
2016-11-19T10:31:10.709Z,7.33
2016-11-19T10:32:10.778Z,7.23
2016-11-19T10:33:10.603Z,7.36
2016-11-19T10:34:10.736Z,7.27
2016-11-19T10:35:10.707Z,7.26
2016-11-19T10:36:10.833Z,7.29
2016-11-19T10:37:10.620Z,7.27
2016-11-19T10:38:10.650Z,7.39
2016-11-19T10:39:10.621Z,7.3
2016-11-19T10:40:10.757Z,7.29
2016-11-19T10:41:11.590Z,7.4
2016-11-19T10:42:10.723Z,7.29
2016-11-19T10:43:10.722Z,7.31
2016-11-19T10:44:10.779Z,7.26
2016-11-19T10:45:10.811Z,7.26
2016-11-19T10:46:10.853Z,7.29
2016-11-19T10:47:10.824Z,7.22
2016-11-19T10:48:10.775Z,7.21
2016-11-19T10:49:10.630Z,7.44
2016-11-19T10:50:10.729Z,7.21
2016-11-19T10:51:10.736Z,7.22
2016-11-19T10:52:10.830Z,7.29
2016-11-19T10:53:10.847Z,7.34
2016-11-19T10:54:10.801Z,7.29
2016-11-19T10:55:10.722Z,7.36
2016-11-19T10:56:10.834Z,7.31
2016-11-19T10:57:10.747Z,7.36
2016-11-19T10:58:10.763Z,7.47
2016-11-19T10:59:10.771Z,7.37
2016-11-19T11:00:10.708Z,7.49
2016-11-19T11:01:10.829Z,7.37
2016-11-19T11:02:10.801Z,7.37
2016-11-19T11:03:10.875Z,7.41
2016-11-19T11:04:10.766Z,7.45
2016-11-19T11:05:10.681Z,7.55
2016-11-19T11:06:10.811Z,7.47
2016-11-19T11:07:10.845Z,7.49
2016-11-19T11:08:11.527Z,7.49
2016-11-19T11:09:10.863Z,7.54
2016-11-19T11:10:10.821Z,7.58
2016-11-19T11:11:10.934Z,7.55
2016-11-19T11:12:10.823Z,7.59
2016-11-19T11:13:10.771Z,7.52
2016-11-19T11:14:10.805Z,7.59
2016-11-19T11:15:10.731Z,7.58
2016-11-19T11:16:10.922Z,7.56
2016-11-19T11:17:10.959Z,7.58
2016-11-19T11:18:10.931Z,7.59
2016-11-19T11:19:10.834Z,7.54
2016-11-19T11:20:10.922Z,7.58
2016-11-19T11:21:10.829Z,7.61
2016-11-19T11:22:10.798Z,7.67
2016-11-19T11:23:10.829Z,7.63
2016-11-19T11:24:11.030Z,7.67
2016-11-19T11:25:10.826Z,7.55
2016-11-19T11:26:10.823Z,7.54
2016-11-19T11:27:10.946Z,7.52
2016-11-19T11:28:10.890Z,7.4
2016-11-19T11:29:10.802Z,7.44
2016-11-19T11:30:10.762Z,7.47
2016-11-19T11:31:10.778Z,7.41
2016-11-19T11:32:10.836Z,7.45
2016-11-19T11:33:10.835Z,7.47
2016-11-19T11:34:12.034Z,7.48
2016-11-19T11:35:10.759Z,7.37
2016-11-19T11:36:10.854Z,7.48
2016-11-19T11:37:10.849Z,7.44
2016-11-19T11:38:10.910Z,7.36
2016-11-19T11:39:10.847Z,7.49
2016-11-19T11:40:10.973Z,7.41
2016-11-19T11:41:10.910Z,7.33
2016-11-19T11:42:10.885Z,7.39
2016-11-19T11:43:10.861Z,7.41
2016-11-19T11:44:10.871Z,7.45
2016-11-19T11:45:10.914Z,7.44
2016-11-19T11:46:10.940Z,7.4
2016-11-19T11:47:10.894Z,7.39
2016-11-19T11:48:11.008Z,7.49
2016-11-19T11:49:10.975Z,7.52
2016-11-19T11:50:10.875Z,7.54
2016-11-19T11:51:10.957Z,7.59
2016-11-19T11:52:10.961Z,7.56
2016-11-19T11:53:10.984Z,7.64
2016-11-19T11:54:10.932Z,7.63
2016-11-19T11:55:10.894Z,7.68
2016-11-19T11:56:11.092Z,7.64
2016-11-19T11:57:10.906Z,7.73
2016-11-19T11:58:10.916Z,7.74
2016-11-19T11:59:11.004Z,7.71
2016-11-19T12:00:10.991Z,7.61
2016-11-19T12:01:10.863Z,7.78
2016-11-19T12:02:10.899Z,7.8
2016-11-19T12:03:10.965Z,7.82
2016-11-19T12:04:10.993Z,7.85
2016-11-19T12:05:10.924Z,7.8
2016-11-19T12:06:10.938Z,7.86
2016-11-19T12:07:11.030Z,7.91
2016-11-19T12:08:10.920Z,7.89
2016-11-19T12:09:10.978Z,7.99
2016-11-19T12:10:11.011Z,7.98
2016-11-19T12:11:11.209Z,8.06
2016-11-19T12:12:10.944Z,8.04
2016-11-19T12:13:10.932Z,8.1
2016-11-19T12:14:11.094Z,8.1
2016-11-19T12:15:11.042Z,8.11
2016-11-19T12:16:10.992Z,8.14
2016-11-19T12:17:11.023Z,8.11
2016-11-19T12:18:10.990Z,8.11
2016-11-19T12:19:11.114Z,8.16
2016-11-19T12:20:10.911Z,8.1
2016-11-19T12:21:11.064Z,8.17
2016-11-19T12:22:11.088Z,8.06
2016-11-19T12:23:11.061Z,8.07
2016-11-19T12:24:11.003Z,8.07
2016-11-19T12:25:11.065Z,8.32
2016-11-19T12:26:11.076Z,8.13
2016-11-19T12:27:10.982Z,8.06
2016-11-19T12:28:10.933Z,8.04
2016-11-19T12:29:11.062Z,7.99
2016-11-19T12:30:11.106Z,8.09
2016-11-19T12:31:11.347Z,8.16
2016-11-19T12:32:11.042Z,8.01
2016-11-19T12:33:10.961Z,8.07
2016-11-19T12:34:11.140Z,8.07
2016-11-19T12:35:11.086Z,8.07
2016-11-19T12:36:10.943Z,8.11
2016-11-19T12:37:11.019Z,8.09
2016-11-19T12:38:11.091Z,8.11
2016-11-19T12:39:11.022Z,8.04
2016-11-19T12:40:11.112Z,8.07
2016-11-19T12:41:10.944Z,8.06
2016-11-19T12:42:10.941Z,8.03
2016-11-19T12:43:10.953Z,8.03
2016-11-19T12:44:11.115Z,8.1
2016-11-19T12:45:11.114Z,8.03
2016-11-19T12:46:11.179Z,7.98
2016-11-19T12:47:11.055Z,7.99
2016-11-19T12:48:11.034Z,7.96
2016-11-19T12:49:11.070Z,8.01
2016-11-19T12:50:11.062Z,8.01
2016-11-19T12:51:11.534Z,8.01
2016-11-19T12:52:10.976Z,7.89
2016-11-19T12:53:11.149Z,7.93
2016-11-19T12:54:11.076Z,7.92
2016-11-19T12:55:11.051Z,7.92
2016-11-19T12:56:11.219Z,7.93
2016-11-19T12:57:10.992Z,7.91
2016-11-19T12:58:11.111Z,7.93
2016-11-19T12:59:11.083Z,7.98
2016-11-19T13:00:11.236Z,7.98
2016-11-19T13:01:11.121Z,8.01
2016-11-19T13:02:11.098Z,8.07
2016-11-19T13:03:11.112Z,8.1
2016-11-19T13:04:11.089Z,8.13
2016-11-19T13:05:11.185Z,8.17
2016-11-19T13:06:11.030Z,8.11
2016-11-19T13:07:11.183Z,8.07
2016-11-19T13:08:11.172Z,8.13
2016-11-19T13:09:11.133Z,8.07
2016-11-19T13:10:11.210Z,8.1
2016-11-19T13:11:11.292Z,8.26
2016-11-19T13:12:11.181Z,8.28
2016-11-19T13:13:11.042Z,8.25
2016-11-19T13:14:11.182Z,8.25
2016-11-19T13:15:11.351Z,8.24
2016-11-19T13:16:11.186Z,8.32
2016-11-19T13:17:11.127Z,8.4
2016-11-19T13:18:11.195Z,8.39
2016-11-19T13:19:11.061Z,8.39
2016-11-19T13:20:11.208Z,8.36
2016-11-19T13:21:11.291Z,8.44
2016-11-19T13:22:11.125Z,8.46